ASN logo
Accident description
Last updated: 18 October 2017
Status:Preliminary
Date:Thursday 3 March 2016
Time:21:52
Type:Silhouette image of generic B739 model; specific model in this crash may look slightly different
Boeing 737-95R
Operator:Jet Airways
Registration: VT-JGD
C/n / msn: 33740/1350
First flight: 2003-07-02 (12 years 8 months)
Engines: 2 CFMI CFM56-7B24
Crew:Fatalities: 0 / Occupants: 8
Passengers:Fatalities: 0 / Occupants: 120
Total:Fatalities: 0 / Occupants: 128
Airplane damage: Substantial
Airplane fate: Repaired
Location:Mumbai-Chhatrapati Shivaji International Airport (BOM) (   India)
Phase: Landing (LDG)
Nature:Domestic Scheduled Passenger
Departure airport:Delhi-Indira Gandhi International Airport (DEL/VIDP), India
Destination airport:Mumbai-Chhatrapati Shivaji International Airport (BOM/VABB), India
Flightnumber:9W354
Narrative:
Jet Airways flight 9W354 was involved in a landing accident at Mumbai-Chhatrapati Shivaji International Airport (BOM), India. The accident happened while the aircraft landed on runway 27 following a regularly scheduled service from Delhi. Photos from the scene show the aircraft with the no.2 engine resting on the ground. The right hand main landing gear strut penetrated the wing.
According to a statement by Jet Airways the aircraft came to rest on Taxiway N9, which is located 2190 m past the runway 27 threshold.
The captain later declared that the crew heard a thud as the aircraft traveled at 80-60 kts down the runway and the aircraft started turning towards the right. As the aircraft came to rest on the taxiway the crew noted a loss of Hydraulic system A and an anti-skid warning.

A following flight, an Airbus A319 (LZ-AOA) operating SpiceJet flight SG169, performed a go around.
Following the accident, runway 09/27 was closed per Notam: "RWY 09/27 NOT AVBL FOR OPS DUE RWY BLOCK."


METAR Weather report:
16:00 UTC / 21:30 local time:
VABB 031600Z 23007KT 3000 FU FEW100 32/15 Q1013 NOSIG

16:30 UTC / 22:00 local time:
VABB 031630Z 02003KT 3000 FU FEW100 32/15 Q1013 NOSIG

17:00 UTC / 22:30 local time:
VABB 031700Z 30006KT 3000 FU NSC 31/15 Q1014 NOSIG


Photos

Add your photo of this accident or aircraft

Video, social media

Map
This map shows the airport of departure and the intended destination of the flight. The line between the airports does not display the exact flight path.
Distance from Delhi-Indira Gandhi International Airport to Mumbai-Chhatrapati Shivaji International Airport as the crow flies is 1131 km (707 miles).

This information is not presented as the Flight Safety Foundation or the Aviation Safety Network’s opinion as to the cause of the accident. It is preliminary and is based on the facts as they are known at this time.
languages: languages

Share